Terminal Aerodrome Forecast
Issued by NWS Sioux Falls, SD

Home | Current Version | Previous Version | Text Only | Print | Product List | Glossary On
Versions: 1 2 3 4 5 6 7 8 9 10 11 12 13 14 15 16 17 18 19 20 21 22 23 24 25 26 27 28
000
FTUS43 KFSD 021815 AAA
TAFSUX
TAF AMD
KSUX 021815Z 0218/0318 17015G25KT P6SM SCT040 SCT250
     FM030200 18012G18KT P6SM BKN040 OVC100
     FM030800 18013G20KT P6SM TSRA BKN040CB OVC250
     FM031000 16011KT P6SM BKN100=

USA.gov is the U.S. government's official web portal to all federal, state and local government web resources and services.